Time;durP1;ratioP1;P1;durP2;ratioP2;P2;SDS_P1;SDS_P2;PMS_P1;PMS_P2;Temp;Humidity;BMP_temperature;BMP_pressure;BME280_temperature;BME280_humidity;BME280_pressure;Samples;Min_cycle;Max_cycle;Signal;HPM_P1;HPM_P2
2022/06/28 00:00:18;;;;;;;;;41.67;36.67;30.20;44.80;;;;;;5075686;28;8800;-68
2022/06/28 00:02:44;;;;;;;;;38.00;35.00;30.30;44.50;;;;;;5075665;28;8762;-68
2022/06/28 00:05:12;;;;;;;;;41.33;36.00;30.50;44.30;;;;;;5075603;28;8763;-69
2022/06/28 00:07:38;;;;;;;;;38.00;34.00;30.50;43.90;;;;;;5075871;28;9443;-68
2022/06/28 00:10:05;;;;;;;;;37.33;34.33;30.50;44.00;;;;;;5069131;28;9441;-68
2022/06/28 00:12:31;;;;;;;;;40.33;36.00;30.50;44.00;;;;;;5066689;28;8803;-68
2022/06/28 00:17:42;;;;;;;;;35.33;33.33;30.50;44.10;;;;;;5055451;28;8796;-70
2022/06/28 00:20:09;;;;;;;;;42.00;35.67;30.50;44.00;;;;;;5055596;28;8814;-68
2022/06/28 00:22:35;;;;;;;;;39.67;35.33;30.50;44.00;;;;;;5055066;28;8806;-68
2022/06/28 00:25:00;;;;;;;;;36.00;33.00;30.50;44.30;;;;;;5055174;28;8768;-69
2022/06/28 00:27:26;;;;;;;;;33.33;32.00;30.50;44.30;;;;;;5055260;28;8781;-69
2022/06/28 00:29:52;;;;;;;;;40.33;35.67;30.50;44.30;;;;;;5059612;28;8910;-68
2022/06/28 00:32:18;;;;;;;;;43.67;37.67;30.50;44.30;;;;;;5073642;28;8876;-68
2022/06/28 00:34:44;;;;;;;;;39.67;35.67;30.50;44.30;;;;;;5075282;28;8778;-68
2022/06/28 00:37:10;;;;;;;;;30.67;30.33;30.40;44.30;;;;;;5074886;28;8922;-69
2022/06/28 00:39:36;;;;;;;;;33.67;32.00;30.30;44.50;;;;;;5074851;28;8897;-68
2022/06/28 00:42:01;;;;;;;;;42.00;35.33;30.20;44.50;;;;;;5074993;28;8785;-68
2022/06/28 00:44:28;;;;;;;;;37.67;34.33;30.20;44.70;;;;;;5074507;28;8852;-68
2022/06/28 00:46:54;;;;;;;;;32.00;30.67;30.20;44.90;;;;;;5074511;28;8750;-69
2022/06/28 00:49:20;;;;;;;;;38.67;34.33;30.10;45.00;;;;;;5074701;28;8789;-68
2022/06/28 00:51:46;;;;;;;;;35.00;32.00;30.10;45.10;;;;;;5074656;28;8782;-70
2022/06/28 00:54:13;;;;;;;;;36.67;33.00;30.10;45.20;;;;;;5074706;28;8762;-68
2022/06/28 00:56:38;;;;;;;;;32.00;30.00;30.00;45.30;;;;;;5074651;28;8914;-68
2022/06/28 00:59:04;;;;;;;;;33.67;32.00;29.90;45.30;;;;;;5074579;28;8750;-69
2022/06/28 01:01:30;;;;;;;;;34.00;32.33;29.70;45.80;;;;;;5074848;28;8789;-68
2022/06/28 01:03:56;;;;;;;;;35.67;33.00;29.70;45.90;;;;;;5074722;28;9423;-68
2022/06/28 01:06:22;;;;;;;;;37.67;33.33;29.80;46.00;;;;;;5074450;28;8774;-68
2022/06/28 01:08:48;;;;;;;;;40.00;35.67;29.80;45.80;;;;;;5074445;28;8773;-69
2022/06/28 01:11:21;;;;;;;;;36.00;33.00;29.80;45.80;;;;;;5074541;28;8750;-69
2022/06/28 01:13:58;;;;;;;;;39.67;35.00;29.70;45.90;;;;;;5074153;28;8843;-68
2022/06/28 01:16:24;;;;;;;;;32.33;31.33;29.70;45.90;;;;;;5074305;28;8817;-69
2022/06/28 01:18:50;;;;;;;;;39.67;35.67;29.80;46.10;;;;;;5074246;28;8770;-69
2022/06/28 01:21:17;;;;;;;;;30.33;30.00;29.70;45.90;;;;;;5074457;28;8762;-69
2022/06/28 01:23:47;;;;;;;;;35.33;33.00;29.70;46.00;;;;;;5074135;28;8778;-68
2022/06/28 01:26:17;;;;;;;;;34.00;32.67;29.70;45.90;;;;;;5074016;28;8774;-69
2022/06/28 01:28:44;;;;;;;;;37.00;34.00;29.70;45.80;;;;;;5074344;28;8770;-69
2022/06/28 01:31:10;;;;;;;;;32.33;31.33;29.60;45.80;;;;;;5073964;28;8777;-69
2022/06/28 01:33:38;;;;;;;;;28.00;27.00;29.70;46.00;;;;;;5073970;28;8795;-68
2022/06/28 01:36:08;;;;;;;;;33.00;32.00;29.70;45.90;;;;;;5073859;28;8774;-69
2022/06/28 01:38:36;;;;;;;;;33.33;31.67;29.70;45.90;;;;;;5074095;28;8758;-68
2022/06/28 01:41:02;;;;;;;;;32.33;31.33;29.70;45.80;;;;;;5073823;28;8777;-68
2022/06/28 01:43:29;;;;;;;;;36.00;33.00;29.70;46.10;;;;;;5073883;28;8817;-68
2022/06/28 01:45:56;;;;;;;;;36.00;33.33;29.70;46.70;;;;;;5073742;28;8787;-69
2022/06/28 01:48:21;;;;;;;;;38.00;35.00;29.60;46.40;;;;;;5073725;28;8778;-69
2022/06/28 01:50:48;;;;;;;;;34.67;32.00;29.50;46.50;;;;;;5074025;28;8758;-69
2022/06/28 01:53:15;;;;;;;;;33.33;32.00;29.40;46.40;;;;;;5073759;28;8762;-69
2022/06/28 01:55:41;;;;;;;;;34.67;32.33;29.50;46.50;;;;;;5071513;28;8790;-69
2022/06/28 01:58:08;;;;;;;;;34.00;32.33;29.50;46.20;;;;;;5073703;28;8805;-69
2022/06/28 02:00:35;;;;;;;;;33.33;32.00;29.50;46.00;;;;;;5073793;28;8765;-69
2022/06/28 02:03:01;;;;;;;;;33.33;32.00;29.40;46.00;;;;;;5073858;28;8770;-68
2022/06/28 02:05:28;;;;;;;;;31.33;30.00;29.30;46.10;;;;;;5073619;28;8785;-68
2022/06/28 02:07:55;;;;;;;;;29.00;29.00;29.40;46.10;;;;;;5073726;28;8770;-68
2022/06/28 02:10:21;;;;;;;;;34.67;32.67;29.40;46.30;;;;;;5074069;28;8792;-68
2022/06/28 02:12:47;;;;;;;;;30.00;28.67;29.30;46.80;;;;;;5073647;28;8866;-68
2022/06/28 02:15:16;;;;;;;;;31.67;30.00;29.30;46.90;;;;;;5073266;28;8814;-68
2022/06/28 02:17:43;;;;;;;;;37.33;34.00;29.40;46.90;;;;;;5073355;28;8900;-68
2022/06/28 02:20:10;;;;;;;;;35.33;32.33;29.30;46.50;;;;;;5073391;28;8750;-68
2022/06/28 02:22:36;;;;;;;;;39.33;34.67;29.30;46.60;;;;;;5073346;28;8778;-68
2022/06/28 02:25:02;;;;;;;;;41.67;35.33;29.30;46.80;;;;;;5073319;28;8762;-68
2022/06/28 02:27:28;;;;;;;;;33.67;31.00;29.30;47.10;;;;;;5073372;28;8782;-68
2022/06/28 02:29:54;;;;;;;;;39.33;35.67;29.30;47.40;;;;;;5073404;28;8856;-68
2022/06/28 02:32:20;;;;;;;;;39.00;33.33;29.30;47.60;;;;;;5073236;28;8746;-68
2022/06/28 02:40:24;;;;;;;;;38.00;34.67;29.30;48.10;;;;;;5073229;28;8738;-69
2022/06/28 02:42:58;;;;;;;;;37.00;34.00;29.20;48.60;;;;;;5073148;28;8793;-69
2022/06/28 02:45:30;;;;;;;;;38.00;34.67;29.20;49.00;;;;;;5073106;28;8770;-68
2022/06/28 02:47:57;;;;;;;;;34.67;32.67;29.20;49.10;;;;;;5073432;28;8757;-68
2022/06/28 02:50:23;;;;;;;;;44.67;37.67;29.20;49.70;;;;;;5073121;28;8885;-69
2022/06/28 02:52:49;;;;;;;;;43.67;37.33;29.10;50.00;;;;;;5073392;28;8877;-68
2022/06/28 02:55:15;;;;;;;;;44.33;36.33;29.10;50.20;;;;;;5073102;28;9399;-68
2022/06/28 02:57:42;;;;;;;;;34.67;32.33;29.10;50.50;;;;;;5073239;28;8794;-68
2022/06/28 03:00:11;;;;;;;;;40.67;36.00;29.10;51.00;;;;;;5073000;28;8872;-68
2022/06/28 03:02:39;;;;;;;;;43.00;36.33;29.10;50.60;;;;;;5073267;28;8758;-68
2022/06/28 03:05:10;;;;;;;;;40.33;36.00;29.10;50.90;;;;;;5073002;28;8758;-68
2022/06/28 03:07:37;;;;;;;;;38.00;34.33;29.00;51.00;;;;;;5073153;28;8792;-68
2022/06/28 03:10:04;;;;;;;;;38.33;34.67;29.10;51.00;;;;;;5076378;28;8777;-68
2022/06/28 03:12:29;;;;;;;;;40.00;34.67;29.00;51.00;;;;;;5076861;28;8754;-68
2022/06/28 03:14:55;;;;;;;;;36.67;33.67;29.10;51.00;;;;;;5076578;28;9451;-68
2022/06/28 03:17:21;;;;;;;;;37.67;32.67;29.10;52.00;;;;;;5076380;28;8809;-68
2022/06/28 03:19:47;;;;;;;;;34.67;32.67;29.00;51.00;;;;;;5076481;28;9455;-68
2022/06/28 03:22:13;;;;;;;;;40.33;35.00;28.90;51.10;;;;;;5076379;28;8788;-68
2022/06/28 03:24:39;;;;;;;;;35.00;33.00;28.90;50.90;;;;;;5076592;28;8781;-68
2022/06/28 03:27:05;;;;;;;;;34.67;32.00;29.00;50.60;;;;;;5076579;28;8774;-69
2022/06/28 03:29:30;;;;;;;;;36.00;33.33;28.80;50.50;;;;;;5076360;28;8785;-68
2022/06/28 03:31:56;;;;;;;;;33.67;31.33;28.70;50.40;;;;;;5076234;28;8786;-68
2022/06/28 03:34:22;;;;;;;;;35.00;32.33;28.80;50.20;;;;;;5076352;28;8766;-68
2022/06/28 03:36:48;;;;;;;;;36.33;33.00;28.80;49.80;;;;;;5076043;28;8817;-68
2022/06/28 03:39:14;;;;;;;;;29.00;29.00;28.80;50.80;;;;;;5073625;28;8774;-68
2022/06/28 03:41:40;;;;;;;;;30.67;29.67;28.90;49.90;;;;;;5069194;28;8772;-68
2022/06/28 03:44:06;;;;;;;;;30.33;30.00;28.90;49.60;;;;;;5072158;28;9435;-68
2022/06/28 03:46:31;;;;;;;;;30.33;30.00;28.90;49.50;;;;;;5075997;28;8778;-69
2022/06/28 03:48:57;;;;;;;;;34.33;32.00;28.90;49.80;;;;;;5076156;28;8766;-68
2022/06/28 03:51:23;;;;;;;;;26.00;26.00;28.90;49.70;;;;;;5075912;28;9359;-68
2022/06/28 03:53:49;;;;;;;;;28.33;28.33;28.60;50.40;;;;;;5076133;28;8762;-68
2022/06/28 03:56:15;;;;;;;;;29.67;29.67;28.60;50.50;;;;;;5075715;28;8872;-68
2022/06/28 03:58:41;;;;;;;;;31.33;30.00;28.70;50.30;;;;;;5075832;28;8770;-68
2022/06/28 04:01:07;;;;;;;;;33.33;30.67;28.70;50.60;;;;;;5075942;28;8761;-68
2022/06/28 04:03:34;;;;;;;;;28.33;28.33;28.80;50.40;;;;;;5075670;28;8762;-68
2022/06/28 04:06:00;;;;;;;;;30.00;29.33;28.90;50.10;;;;;;5075931;28;8789;-68
2022/06/28 04:08:26;;;;;;;;;29.00;27.00;28.70;50.40;;;;;;5075534;28;8757;-68
2022/06/28 04:13:41;;;;;;;;;32.67;30.33;28.70;50.50;;;;;;5075452;28;8806;-67
2022/06/28 04:16:07;;;;;;;;;29.33;29.33;28.90;49.90;;;;;;5075485;28;8762;-68
2022/06/28 04:18:33;;;;;;;;;31.67;30.33;29.00;49.50;;;;;;5075485;28;8770;-68
2022/06/28 04:20:59;;;;;;;;;32.67;31.67;29.00;49.30;;;;;;5075152;28;8781;-68
2022/06/28 04:23:25;;;;;;;;;37.67;32.33;29.10;49.20;;;;;;5073452;28;8859;-68
2022/06/28 04:25:51;;;;;;;;;32.33;31.33;29.20;48.90;;;;;;5077850;28;8830;-68
2022/06/28 04:28:17;;;;;;;;;34.00;32.33;29.10;48.80;;;;;;5078130;28;8789;-68
2022/06/28 04:30:43;;;;;;;;;30.67;30.33;29.20;48.90;;;;;;5075245;28;8762;-68
2022/06/28 04:33:09;;;;;;;;;31.33;30.33;29.20;48.70;;;;;;5075017;28;8805;-68
2022/06/28 04:35:34;;;;;;;;;34.00;32.00;28.90;48.80;;;;;;5075026;28;8781;-68
2022/06/28 04:38:01;;;;;;;;;29.00;28.67;28.90;49.10;;;;;;5074905;28;8806;-68
2022/06/28 04:40:27;;;;;;;;;27.33;27.33;29.00;49.20;;;;;;5064198;28;8819;-68
2022/06/28 04:42:53;;;;;;;;;31.33;30.33;29.10;49.00;;;;;;5077986;28;8812;-68
2022/06/28 04:45:19;;;;;;;;;30.67;28.33;29.20;48.60;;;;;;5074870;28;8754;-68
2022/06/28 04:47:45;;;;;;;;;29.00;29.00;29.10;48.40;;;;;;5074997;28;8762;-67
2022/06/28 04:50:11;;;;;;;;;32.00;30.00;29.20;48.30;;;;;;5075065;28;9288;-68
2022/06/28 04:52:36;;;;;;;;;28.00;28.00;29.40;48.30;;;;;;5074729;28;8758;-68
2022/06/28 04:55:03;;;;;;;;;32.67;29.67;29.50;48.10;;;;;;5074610;28;8875;-68
2022/06/28 04:57:29;;;;;;;;;31.00;28.00;29.50;47.70;;;;;;5074563;28;8832;-68
2022/06/28 04:59:55;;;;;;;;;31.67;30.00;29.40;47.70;;;;;;5074621;28;8770;-68
2022/06/28 05:02:21;;;;;;;;;28.33;27.67;29.50;47.90;;;;;;5074777;28;9431;-68
2022/06/28 05:04:47;;;;;;;;;28.33;28.33;29.40;47.50;;;;;;5074362;28;8792;-67
2022/06/28 05:07:13;;;;;;;;;28.67;27.33;29.60;47.40;;;;;;5074613;28;8793;-68
2022/06/28 05:09:40;;;;;;;;;29.67;29.67;29.60;47.20;;;;;;5074211;28;8897;-68
2022/06/28 05:12:06;;;;;;;;;28.67;28.67;29.60;47.20;;;;;;5074329;28;9447;-68
2022/06/28 05:14:32;;;;;;;;;32.67;30.00;29.70;47.00;;;;;;5073982;28;8818;-68
2022/06/28 05:16:59;;;;;;;;;31.00;30.00;29.70;47.00;;;;;;5074332;28;8848;-68
2022/06/28 05:19:25;;;;;;;;;30.00;29.00;29.70;47.00;;;;;;5074210;28;8830;-68
2022/06/28 05:21:51;;;;;;;;;38.33;32.67;29.90;47.10;;;;;;5074002;28;9457;-68
2022/06/28 05:24:17;;;;;;;;;29.67;29.00;29.90;46.90;;;;;;5074313;28;8834;-68
2022/06/28 05:26:43;;;;;;;;;35.00;33.00;29.90;47.00;;;;;;5073989;28;8876;-68
2022/06/28 05:29:09;;;;;;;;;31.67;30.00;29.90;47.10;;;;;;5074070;28;8762;-68
2022/06/28 05:31:35;;;;;;;;;33.33;30.00;29.90;47.00;;;;;;5073385;28;8774;-68
2022/06/28 05:34:02;;;;;;;;;35.67;32.00;30.00;46.80;;;;;;5074167;28;8757;-68
2022/06/28 05:36:28;;;;;;;;;38.00;33.33;30.10;46.70;;;;;;5073837;28;8896;-68
2022/06/28 05:38:54;;;;;;;;;37.00;33.67;30.20;46.60;;;;;;5073861;28;8765;-68
2022/06/28 05:41:20;;;;;;;;;32.00;31.00;30.00;45.90;;;;;;5073749;28;8851;-68
2022/06/28 05:43:45;;;;;;;;;37.33;34.33;30.00;45.80;;;;;;5073605;28;8786;-68
2022/06/28 05:46:11;;;;;;;;;33.67;32.33;30.20;45.30;;;;;;5073701;28;8786;-68
2022/06/28 05:48:37;;;;;;;;;32.67;31.67;30.20;44.80;;;;;;5073704;28;8766;-68
2022/06/28 05:51:03;;;;;;;;;31.33;30.33;30.00;44.30;;;;;;5073626;28;8778;-68
2022/06/28 05:53:29;;;;;;;;;31.67;30.00;29.80;44.50;;;;;;5073580;28;9616;-68
2022/06/28 05:55:56;;;;;;;;;31.33;30.33;29.90;44.70;;;;;;5073680;28;8770;-68
2022/06/28 05:58:21;;;;;;;;;38.67;34.33;30.00;44.40;;;;;;5073450;28;8820;-68
2022/06/28 06:00:49;;;;;;;;;36.67;33.33;30.00;44.60;;;;;;5073451;28;8832;-68
2022/06/28 06:03:15;;;;;;;;;36.33;33.33;30.00;44.80;;;;;;5073595;28;8770;-68
2022/06/28 06:05:41;;;;;;;;;30.00;28.67;30.30;44.80;;;;;;5073497;28;8847;-68
2022/06/28 06:08:07;;;;;;;;;35.67;33.00;30.30;44.80;;;;;;5073600;28;8784;-69
2022/06/28 06:10:32;;;;;;;;;34.33;32.33;30.50;44.70;;;;;;5073553;28;8773;-68
2022/06/28 06:12:58;;;;;;;;;36.00;33.00;30.50;44.80;;;;;;5073349;28;8798;-68
2022/06/28 06:15:24;;;;;;;;;35.00;32.33;30.50;44.60;;;;;;5073137;28;8820;-68
2022/06/28 06:17:50;;;;;;;;;41.33;36.00;30.60;44.80;;;;;;5073362;28;8814;-68
2022/06/28 06:20:16;;;;;;;;;37.33;33.33;30.60;44.90;;;;;;5073265;28;8754;-68
2022/06/28 06:22:41;;;;;;;;;38.33;33.67;30.70;44.90;;;;;;5073149;28;8874;-68
2022/06/28 06:25:08;;;;;;;;;36.00;33.00;30.80;45.20;;;;;;5073168;28;8789;-68
2022/06/28 06:27:33;;;;;;;;;41.33;36.33;30.80;45.30;;;;;;5073451;28;9478;-68
2022/06/28 06:29:59;;;;;;;;;43.00;37.67;30.70;45.90;;;;;;5073474;28;8778;-68
2022/06/28 06:32:25;;;;;;;;;37.00;34.00;30.90;45.20;;;;;;5073134;28;8770;-68
2022/06/28 06:34:51;;;;;;;;;37.00;34.00;30.80;44.10;;;;;;5073106;28;8786;-68
2022/06/28 06:37:16;;;;;;;;;36.33;33.33;30.60;43.80;;;;;;5073123;28;8810;-68
2022/06/28 06:39:42;;;;;;;;;36.33;33.33;30.50;44.50;;;;;;5073386;28;8881;-68
2022/06/28 06:42:08;;;;;;;;;34.33;32.33;30.70;43.50;;;;;;5068691;28;8789;-68
2022/06/28 06:44:34;;;;;;;;;38.00;34.67;30.70;43.30;;;;;;5067249;28;8797;-69
2022/06/28 06:47:00;;;;;;;;;36.00;33.33;30.90;43.20;;;;;;5076927;28;8770;-69
2022/06/28 06:49:25;;;;;;;;;35.00;33.00;31.10;42.60;;;;;;5076852;28;8766;-69
2022/06/28 06:51:51;;;;;;;;;38.33;33.33;31.30;42.30;;;;;;5076825;28;8815;-68
2022/06/28 06:54:17;;;;;;;;;36.33;33.33;31.10;41.60;;;;;;5076801;28;8762;-69
2022/06/28 06:56:43;;;;;;;;;33.67;32.00;31.10;41.20;;;;;;5076756;28;8871;-69
2022/06/28 06:59:12;;;;;;;;;39.67;34.67;31.30;41.20;;;;;;5076835;28;8878;-67
2022/06/28 07:01:37;;;;;;;;;34.33;32.33;31.20;41.20;;;;;;5076977;28;9462;-66
2022/06/28 07:04:04;;;;;;;;;33.00;32.00;31.00;41.10;;;;;;5076485;28;8770;-67
2022/06/28 07:06:30;;;;;;;;;33.67;32.33;31.20;40.50;;;;;;5076487;28;8774;-68
2022/06/28 07:08:55;;;;;;;;;33.00;31.67;31.30;40.50;;;;;;5063562;28;8815;-68
2022/06/28 07:11:22;;;;;;;;;35.00;32.00;31.30;40.60;;;;;;5075365;28;8885;-69
2022/06/28 07:13:47;;;;;;;;;37.33;33.00;31.30;40.30;;;;;;5070192;28;9460;-69
2022/06/28 07:16:13;;;;;;;;;35.00;33.00;31.10;40.50;;;;;;5070257;28;8770;-68
2022/06/28 07:18:40;;;;;;;;;30.33;30.00;31.20;40.50;;;;;;5066866;28;8835;-68
2022/06/28 07:21:05;;;;;;;;;26.33;26.33;31.30;40.20;;;;;;5061700;28;8776;-68
2022/06/28 07:23:31;;;;;;;;;35.00;32.00;31.30;38.90;;;;;;5057315;28;8790;-67
2022/06/28 07:25:57;;;;;;;;;38.67;34.33;31.30;39.70;;;;;;5057207;28;8777;-67
2022/06/28 07:28:23;;;;;;;;;42.33;36.00;31.60;39.70;;;;;;5059887;28;8778;-67
2022/06/28 07:30:49;;;;;;;;;40.00;36.00;31.70;39.20;;;;;;5085027;28;8800;-68
2022/06/28 07:33:15;;;;;;;;;42.67;36.00;31.80;39.60;;;;;;5067374;28;8888;-67
2022/06/28 07:35:41;;;;;;;;;41.00;36.33;32.00;39.30;;;;;;5066074;28;8784;-67
2022/06/28 07:38:07;;;;;;;;;44.00;38.00;32.10;39.20;;;;;;5056903;28;9627;-67
2022/06/28 07:40:33;;;;;;;;;43.00;36.67;32.20;39.20;;;;;;5059845;28;8772;-67
2022/06/28 07:43:00;;;;;;;;;47.00;40.00;32.20;40.20;;;;;;5068255;28;8850;-68
2022/06/28 07:45:25;;;;;;;;;46.00;38.33;32.40;39.90;;;;;;5066054;28;8784;-68
2022/06/28 07:47:51;;;;;;;;;47.00;40.33;32.50;40.50;;;;;;5061098;28;8819;-68
2022/06/28 07:53:05;;;;;;;;;44.33;38.00;32.30;39.00;;;;;;5071957;28;8776;-67
2022/06/28 07:55:31;;;;;;;;;40.33;34.67;32.40;39.10;;;;;;5063023;28;8776;-68
2022/06/28 07:57:57;;;;;;;;;45.67;39.00;32.50;38.30;;;;;;5064523;28;9426;-67
2022/06/28 08:00:24;;;;;;;;;59.00;48.00;32.50;39.00;;;;;;5056497;28;8768;-68
2022/06/28 08:02:50;;;;;;;;;47.33;40.00;32.30;37.80;;;;;;5067702;28;8794;-68
2022/06/28 08:05:17;;;;;;;;;39.67;35.67;32.30;37.60;;;;;;5063860;28;8766;-67
2022/06/28 08:07:43;;;;;;;;;40.33;36.00;32.50;37.50;;;;;;5096699;28;8752;-67
2022/06/28 08:10:10;;;;;;;;;44.67;38.67;32.30;39.00;;;;;;5091990;28;8792;-71
2022/06/28 08:12:36;;;;;;;;;45.00;38.33;32.40;37.80;;;;;;5065429;28;8789;-66
2022/06/28 08:15:03;;;;;;;;;55.00;45.67;32.50;37.70;;;;;;5079361;28;8835;-67
2022/06/28 08:17:29;;;;;;;;;47.33;39.00;32.60;37.80;;;;;;5096527;28;8904;-68
2022/06/28 08:19:55;;;;;;;;;47.33;40.00;32.80;37.70;;;;;;5096547;28;8768;-68
2022/06/28 08:22:21;;;;;;;;;46.00;39.00;32.80;37.50;;;;;;5096592;28;8774;-68
2022/06/28 08:24:47;;;;;;;;;43.67;37.33;32.80;37.20;;;;;;5096362;28;8756;-69
2022/06/28 08:27:13;;;;;;;;;48.00;40.67;32.70;37.70;;;;;;5096562;28;8756;-68
2022/06/28 08:29:42;;;;;;;;;36.67;33.33;33.00;38.70;;;;;;5096446;28;8866;-69
2022/06/28 08:32:09;;;;;;;;;45.00;39.00;33.20;37.80;;;;;;5096762;28;8811;-69
2022/06/28 08:34:35;;;;;;;;;36.67;33.67;33.20;38.30;;;;;;5096183;28;9377;-66
2022/06/28 08:37:01;;;;;;;;;35.67;32.67;33.40;37.90;;;;;;5071829;28;8826;-66
2022/06/28 08:39:27;;;;;;;;;34.00;32.00;33.20;36.50;;;;;;5075648;28;8776;-66
2022/06/28 08:41:54;;;;;;;;;29.00;29.00;33.40;37.70;;;;;;5096083;28;9439;-71
2022/06/28 08:44:20;;;;;;;;;38.67;34.67;33.40;36.60;;;;;;5081193;28;8823;-73
2022/06/28 08:46:51;;;;;;;;;38.00;33.00;33.50;37.80;;;;;;5055822;28;8760;-67
2022/06/28 08:49:52;;;;;;;;;34.33;32.67;33.60;37.80;;;;;;5055902;28;8768;-71
2022/06/28 08:52:21;;;;;;;;;38.00;33.00;33.40;37.10;;;;;;5055503;28;8760;-70
2022/06/28 08:54:48;;;;;;;;;37.33;34.33;33.70;38.00;;;;;;5055511;28;9444;-70
2022/06/28 08:57:15;;;;;;;;;39.67;34.33;33.70;37.90;;;;;;5055542;28;8792;-70
2022/06/28 08:59:41;;;;;;;;;37.67;34.33;33.80;37.70;;;;;;5055661;28;8875;-68
2022/06/28 09:02:08;;;;;;;;;42.00;37.00;33.90;37.50;;;;;;5055655;28;8772;-68
2022/06/28 09:04:34;;;;;;;;;41.00;35.67;34.00;36.30;;;;;;5055529;28;8903;-71
2022/06/28 09:07:00;;;;;;;;;40.00;35.67;33.90;36.50;;;;;;5054305;28;8771;-71
2022/06/28 09:09:26;;;;;;;;;33.67;31.33;34.10;36.30;;;;;;5055317;28;8772;-72
2022/06/28 09:11:53;;;;;;;;;33.67;31.67;33.80;36.30;;;;;;5054989;28;8775;-71
2022/06/28 09:14:39;;;;;;;;;34.00;32.00;33.80;36.60;;;;;;5056016;28;8847;-69
2022/06/28 09:17:20;;;;;;;;;27.00;27.00;33.90;36.80;;;;;;5061996;28;8836;-69
2022/06/28 09:19:46;;;;;;;;;31.00;29.00;34.20;36.80;;;;;;5064350;28;8784;-68
2022/06/28 09:22:32;;;;;;;;;32.00;29.33;34.20;35.30;;;;;;5068579;28;8799;-69
2022/06/28 09:25:00;;;;;;;;;35.67;32.67;34.00;36.10;;;;;;5060301;28;8862;-69
2022/06/28 09:27:31;;;;;;;;;34.33;32.00;34.20;36.40;;;;;;5054252;28;8913;-70
2022/06/28 09:29:59;;;;;;;;;31.33;30.33;34.30;35.50;;;;;;5054936;28;8764;-68
2022/06/28 09:32:36;;;;;;;;;40.67;34.67;34.30;35.30;;;;;;5062251;28;8798;-68
2022/06/28 09:35:05;;;;;;;;;32.67;30.00;34.30;36.10;;;;;;5067182;28;8838;-68
2022/06/28 09:37:48;;;;;;;;;32.67;31.00;34.50;35.10;;;;;;5067249;28;8832;-70
2022/06/28 09:40:15;;;;;;;;;26.33;26.33;34.40;34.60;;;;;;5070570;28;8814;-69
2022/06/28 09:42:42;;;;;;;;;27.67;27.67;34.30;34.70;;;;;;5063608;28;12146;-71
2022/06/28 09:45:11;;;;;;;;;31.00;30.00;34.40;35.00;;;;;;5054865;28;8926;-68
2022/06/28 09:47:49;;;;;;;;;27.33;27.00;34.70;34.60;;;;;;5063666;28;8778;-69
2022/06/28 09:50:19;;;;;;;;;31.33;30.33;34.80;34.70;;;;;;5055749;28;8779;-68
2022/06/28 09:52:46;;;;;;;;;27.00;27.00;35.10;33.80;;;;;;5057634;28;8766;-68
2022/06/28 09:55:16;;;;;;;;;26.67;26.67;35.00;33.60;;;;;;5065684;28;11464;-67
2022/06/28 09:57:50;;;;;;;;;23.00;23.00;35.00;33.10;;;;;;5067893;28;11488;-68
2022/06/28 10:00:20;;;;;;;;;28.00;28.00;34.90;33.20;;;;;;5056312;28;11503;-68
2022/06/28 10:02:46;;;;;;;;;26.00;26.00;35.20;33.60;;;;;;5054458;28;11462;-68
2022/06/28 10:05:13;;;;;;;;;23.75;23.75;35.40;33.50;;;;;;5054325;28;11482;-68
2022/06/28 10:07:40;;;;;;;;;22.75;22.75;35.40;31.70;;;;;;5060430;28;11506;-68
2022/06/28 10:10:09;;;;;;;;;18.50;18.50;35.40;32.30;;;;;;5058961;28;11607;-67
2022/06/28 10:15:26;;;;;;;;;24.33;24.33;35.40;32.80;;;;;;5053951;28;11519;-68
2022/06/28 10:17:57;;;;;;;;;21.00;21.00;35.70;32.10;;;;;;5058090;28;12198;-71
2022/06/28 10:20:27;;;;;;;;;24.00;24.00;35.90;31.10;;;;;;5059957;28;11507;-68
2022/06/28 10:23:12;;;;;;;;;24.50;24.50;35.90;31.80;;;;;;5063770;28;11475;-69
2022/06/28 10:25:39;;;;;;;;;21.25;21.25;36.00;30.40;;;;;;5067342;28;11622;-70
2022/06/28 10:28:25;;;;;;;;;22.25;22.25;35.80;31.00;;;;;;5053825;28;11487;-70
2022/06/28 10:31:23;;;;;;;;;20.75;20.75;35.70;31.00;;;;;;5056499;28;11453;-70
2022/06/28 10:34:03;;;;;;;;;22.75;22.75;35.60;31.70;;;;;;5067026;28;11548;-67
2022/06/28 10:36:50;;;;;;;;;18.25;18.25;35.80;31.10;;;;;;5073643;28;11594;-68
2022/06/28 10:39:22;;;;;;;;;17.75;17.75;35.80;30.10;;;;;;5070380;28;11485;-68
2022/06/28 10:41:49;;;;;;;;;20.00;18.25;36.00;30.40;;;;;;5064748;28;11470;-67
2022/06/28 10:44:23;;;;;;;;;20.25;20.25;35.90;29.70;;;;;;5053775;28;11567;-67
2022/06/28 10:47:14;;;;;;;;;12.00;12.00;36.10;29.40;;;;;;5058294;28;11512;-66
2022/06/28 10:49:43;;;;;;;;;14.00;14.00;36.50;27.90;;;;;;5056944;28;12121;-67
2022/06/28 10:52:19;;;;;;;;;18.50;18.50;36.50;28.60;;;;;;5065620;28;12098;-67
2022/06/28 10:54:56;;;;;;;;;18.00;18.00;36.70;28.10;;;;;;5063251;28;11467;-66
2022/06/28 10:57:26;;;;;;;;;14.00;14.00;36.90;28.10;;;;;;5063414;28;11564;-67
2022/06/28 10:59:57;;;;;;;;;14.25;14.25;36.90;27.80;;;;;;5057979;28;11502;-67
2022/06/28 11:02:24;;;;;;;;;15.00;15.00;36.80;27.80;;;;;;5062601;28;11459;-66
2022/06/28 11:05:06;;;;;;;;;12.00;12.00;36.80;27.80;;;;;;5053595;28;11440;-67
2022/06/28 11:07:34;;;;;;;;;13.75;13.75;36.80;27.10;;;;;;5053808;28;11520;-67
2022/06/28 11:10:00;;;;;;;;;13.00;13.00;36.80;27.20;;;;;;5060280;28;11455;-66
2022/06/28 11:12:29;;;;;;;;;14.25;14.25;36.70;28.30;;;;;;5065719;28;11459;-66
2022/06/28 11:15:09;;;;;;;;;17.00;17.00;36.80;27.60;;;;;;5056442;28;8863;-67
2022/06/28 11:17:41;;;;;;;;;15.50;15.50;37.20;28.20;;;;;;5058419;28;11629;-67
2022/06/28 11:20:11;;;;;;;;;15.50;15.50;37.20;27.50;;;;;;5068294;28;11424;-67
2022/06/28 11:22:43;;;;;;;;;16.00;16.00;37.20;27.60;;;;;;5082402;28;11366;-66
2022/06/28 11:25:12;;;;;;;;;12.50;12.50;37.20;28.10;;;;;;5071295;28;11517;-66
2022/06/28 11:27:52;;;;;;;;;14.25;14.25;37.10;26.90;;;;;;5072214;28;11427;-66
2022/06/28 11:30:19;;;;;;;;;13.25;13.25;37.20;27.30;;;;;;5073994;28;11420;-66
2022/06/28 11:32:50;;;;;;;;;16.00;16.00;37.20;26.90;;;;;;5074869;28;11393;-66
2022/06/28 11:35:45;;;;;;;;;15.75;15.75;37.20;27.10;;;;;;5075683;28;11390;-67
2022/06/28 11:38:14;;;;;;;;;14.00;14.00;37.20;27.20;;;;;;5032756;28;11463;-66
2022/06/28 11:40:43;;;;;;;;;14.25;14.25;37.50;26.70;;;;;;5033519;28;11399;-66
2022/06/28 11:43:11;;;;;;;;;14.00;14.00;37.60;26.10;;;;;;5032822;28;11532;-66
2022/06/28 11:45:48;;;;;;;;;13.00;12.00;37.80;25.80;;;;;;5034822;28;11996;-67
2022/06/28 11:48:18;;;;;;;;;12.25;12.25;37.90;25.50;;;;;;5032274;28;11461;-64
2022/06/28 11:50:50;;;;;;;;;11.75;11.75;37.90;24.80;;;;;;5013922;28;11459;-64
2022/06/28 11:53:16;;;;;;;;;10.00;10.00;37.80;25.10;;;;;;5013943;28;11465;-64
2022/06/28 11:55:53;;;;;;;;;10.75;10.75;37.60;24.40;;;;;;5013878;28;11559;-64
2022/06/28 11:58:32;;;;;;;;;10.00;10.00;37.70;24.70;;;;;;5014510;28;8816;-64
2022/06/28 12:01:05;;;;;;;;;12.25;12.25;37.90;24.60;;;;;;5014572;28;12155;-64
2022/06/28 12:03:34;;;;;;;;;10.00;10.00;38.10;25.20;;;;;;5014759;28;11482;-64
2022/06/28 12:06:02;;;;;;;;;12.25;12.25;37.80;24.60;;;;;;5014634;28;11467;-63
2022/06/28 12:08:46;;;;;;;;;11.00;11.00;37.90;25.10;;;;;;5014537;28;11505;-64
2022/06/28 12:11:36;;;;;;;;;13.25;13.25;38.20;24.40;;;;;;5014567;28;12194;-64
2022/06/28 12:14:14;;;;;;;;;10.00;10.00;38.40;25.10;;;;;;5025814;28;12277;-64
2022/06/28 12:16:41;;;;;;;;;13.50;13.50;38.50;26.10;;;;;;5056209;28;11432;-64
2022/06/28 12:19:09;;;;;;;;;14.00;14.00;38.70;25.00;;;;;;5056191;28;11466;-64
2022/06/28 12:21:36;;;;;;;;;13.50;13.50;38.60;25.40;;;;;;5056380;28;11502;-64
2022/06/28 12:24:03;;;;;;;;;15.25;15.25;38.90;25.50;;;;;;5066584;28;11455;-68
2022/06/28 12:26:43;;;;;;;;;15.00;15.00;39.00;24.80;;;;;;5042692;28;11485;-66
2022/06/28 12:29:09;;;;;;;;;12.75;12.75;38.90;24.20;;;;;;5067780;28;11449;-65
2022/06/28 12:31:35;;;;;;;;;10.00;10.00;38.70;24.50;;;;;;5076223;28;11565;-65
2022/06/28 12:34:07;;;;;;;;;12.00;12.00;38.70;24.40;;;;;;5075876;28;11554;-66
2022/06/28 12:36:34;;;;;;;;;12.75;12.75;39.00;25.10;;;;;;5075913;28;8781;-66
2022/06/28 12:39:01;;;;;;;;;10.25;10.25;38.90;24.10;;;;;;5075688;28;11419;-66
2022/06/28 12:41:26;;;;;;;;;11.75;11.75;38.90;24.50;;;;;;5075825;28;12218;-66
2022/06/28 12:43:52;;;;;;;;;13.00;13.00;39.10;24.50;;;;;;5075748;28;11569;-64
2022/06/28 12:46:18;;;;;;;;;14.00;14.00;39.00;24.00;;;;;;5075824;28;8824;-66
2022/06/28 12:48:44;;;;;;;;;14.50;14.50;38.80;24.60;;;;;;5075963;28;8845;-66
2022/06/28 12:51:09;;;;;;;;;10.75;10.75;38.40;25.10;;;;;;5075538;28;9395;-67
2022/06/28 12:53:35;;;;;;;;;12.25;12.25;38.70;23.70;;;;;;5075563;28;8801;-66
2022/06/28 12:56:01;;;;;;;;;12.75;12.75;38.70;24.10;;;;;;5075422;28;8866;-66